NMA5062 EPRZ-HEGN
Flight info
| Callsign | NMA5062 |
|---|---|
| Flight time | N/A |
| Altitude | 35000 |
| Route | LUMEQ DCT PODAN DCT KEKED DCT NARKA DCT GANNA DCT LOMOS DCT NIKTI UN127 LMO UL618 MES UL609 RDS UL995 VANZA DCT RASDA A16 CVO L315 HGD |
| Aircraft | A320/M-SDE3FGHIRWY/LB1 |
Departure
| Time | 2026-04-25 19:59 |
|---|---|
| Airport | Rzeszów-Jasionka Airport (EPRZ) |
Arrival
| Time | N/A |
|---|---|
| Airport | Hurghada International Airport (HEGN) |
| Time | Latitude | Longitude | Altitude | Speed | Heading |
|---|---|---|---|---|---|
| 2026-04-25 19:36 | 50.11413 | 22.02535 | 692 ft | 0 kts | 1° |
| 2026-04-25 19:42 | 50.11412 | 22.02535 | 719 ft | 0 kts | 1° |
| 2026-04-25 19:48 | 50.11413 | 22.02535 | 719 ft | 0 kts | 1° |
| 2026-04-25 19:48 | 50.11412 | 22.02535 | 719 ft | 0 kts | 1° |
| 2026-04-25 19:49 | 50.11407 | 22.02535 | 682 ft | 4 kts | 1° |
| 2026-04-25 19:49 | 50.11380 | 22.02534 | 682 ft | 4 kts | 1° |
| 2026-04-25 19:50 | 50.11333 | 22.02526 | 686 ft | 4 kts | 44° |
| 2026-04-25 19:50 | 50.11324 | 22.02492 | 684 ft | 4 kts | 89° |
| 2026-04-25 19:50 | 50.11323 | 22.02479 | 688 ft | 0 kts | 90° |
| 2026-04-25 19:54 | 50.11323 | 22.02541 | 691 ft | 12 kts | 90° |
| 2026-04-25 19:54 | 50.11323 | 22.02585 | 687 ft | 12 kts | 90° |
| 2026-04-25 19:55 | 50.11267 | 22.02745 | 686 ft | 15 kts | 179° |
| 2026-04-25 19:55 | 50.11158 | 22.02742 | 688 ft | 16 kts | 181° |
| 2026-04-25 19:55 | 50.11047 | 22.02740 | 689 ft | 15 kts | 181° |
| 2026-04-25 19:55 | 50.10984 | 22.02861 | 694 ft | 22 kts | 89° |
| 2026-04-25 19:56 | 50.10981 | 22.03108 | 694 ft | 27 kts | 91° |
| 2026-04-25 19:56 | 50.10976 | 22.03438 | 690 ft | 33 kts | 91° |
| 2026-04-25 19:56 | 50.10972 | 22.03729 | 684 ft | 39 kts | 91° |
| 2026-04-25 19:56 | 50.10965 | 22.04127 | 681 ft | 33 kts | 91° |
| 2026-04-25 19:57 | 50.10965 | 22.04407 | 679 ft | 16 kts | 83° |
| 2026-04-25 19:57 | 50.11000 | 22.04553 | 680 ft | 13 kts | 75° |
| 2026-04-25 19:57 | 50.10963 | 22.04562 | 680 ft | 8 kts | 250° |
| 2026-04-25 19:57 | 50.10961 | 22.04518 | 680 ft | 0 kts | 270° |
| 2026-04-25 19:58 | 50.10961 | 22.04488 | 680 ft | 12 kts | 270° |
| 2026-04-25 19:58 | 50.10968 | 22.03973 | 683 ft | 81 kts | 271° |
| 2026-04-25 19:58 | 50.10983 | 22.02804 | 695 ft | 133 kts | 271° |
| 2026-04-25 19:58 | 50.11010 | 22.01168 | 887 ft | 157 kts | 271° |
| 2026-04-25 19:59 | 50.11036 | 21.99432 | 1453 ft | 158 kts | 271° |
| 2026-04-25 19:59 | 50.11056 | 21.97713 | 2122 ft | 157 kts | 273° |
| 2026-04-25 19:59 | 50.11075 | 21.95996 | 2618 ft | 164 kts | 273° |
| 2026-04-25 19:59 | 50.11100 | 21.94122 | 2821 ft | 184 kts | 273° |
| 2026-04-25 20:00 | 50.11128 | 21.92009 | 3140 ft | 200 kts | 273° |
| 2026-04-25 20:00 | 50.11077 | 21.90544 | 3448 ft | 214 kts | 260° |
| 2026-04-25 20:00 | 50.09871 | 21.87817 | 4035 ft | 249 kts | 226° |
| 2026-04-25 20:00 | 50.08521 | 21.86099 | 4791 ft | 253 kts | 225° |
| 2026-04-25 20:01 | 50.05727 | 21.82617 | 6345 ft | 262 kts | 221° |